Tiempo atmosférico en la estación meteorológica de Burela, Lugo (80 m.)



Fecha
DESCASC
Temp. máxima en grados centígrados (hora)
DESCASC
Temp. mínima en grados centígrados (hora)
DESCASC
Temp. media en grados centígrados
DESCASC
Racha de viento máxima en m/sg (hora)
DESCASC
Velocidad máxima media en intervalos de 10 minutos(hora)
DESCASC
Precipitaciones diarias en mm
DESCASC
Precipitaciones de 00:00 a 06:00 en mm
DESCASC
Precipitaciones de 06:00 a 12:00 en mm
DESCASC
Precipitaciones de 12:00 a 18:00 en mm
DESCASC
Precipitaciones de 18:00 a 24:00 en mm
DESCASC
18-02-2018 14.3 (13:50) 6.7 (06:50) 10.5 -- (--) -- (--) 0 0 0 0 0
17-02-2018 12.7 (12:50) 7.1 (23:10) 9.9 -- (--) -- (--) 0.2 0 0.2 0 0
16-02-2018 13.1 (12:50) 8.5 (23:59) 10.8 -- (--) -- (--) 36.6 4 11.4 13.6 7.6
15-02-2018 18.2 (12:40) 11.6 (00:00) 14.9 -- (--) -- (--) 3.8 0 0 0.6 3.2
14-02-2018 17.6 (13:40) 10.5 (00:00) 14.1 -- (--) -- (--) 0 0 0 0 0
13-02-2018 11.8 (14:50) 6 (00:00) 8.9 -- (--) -- (--) 11.4 0.2 7.8 0.8 2.6
12-02-2018 9.3 (12:30) 4.4 (00:00) 6.9 -- (--) -- (--) 2 0 0.2 1.8 0
11-02-2018 13.3 (09:10) 7.1 (00:00) 10.2 -- (--) -- (--) 11 0 8.2 2.2 0.6
10-02-2018 12.9 (23:50) 5.9 (00:00) 9.4 -- (--) -- (--) 0.8 0.2 0.2 0.4 0
09-02-2018 10.6 (11:20) 7.2 (00:00) 8.9 -- (--) -- (--) 6 0.6 4 1.2 0.2
08-02-2018 11 (14:40) 4.1 (00:00) 7.5 -- (--) -- (--) 0 0 0 0 0
07-02-2018 7.8 (11:40) 4.6 (00:00) 6.2 -- (--) -- (--) 5 2.4 0.8 1.6 0.2
06-02-2018 8.5 (14:20) 4.2 (00:00) 6.3 -- (--) -- (--) 10.2 0 4.4 0.6 5.2
05-02-2018 8.5 (00:00) 5.5 (00:00) 7 -- (--) -- (--) 3.2 2.6 0 0.2 0.4
04-02-2018 9.3 (13:00) 5.7 (00:00) 7.5 -- (--) -- (--) 7.8 2.2 1.2 1.6 2.8
03-02-2018 10.7 (11:10) 6.4 (00:00) 8.5 -- (--) -- (--) 20.2 1.4 2.2 9.4 7.2
02-02-2018 10.2 (14:00) 5.1 (00:00) 7.6 -- (--) -- (--) 8.6 4 3.2 1.2 0.2
01-02-2018 9.9 (00:00) 7 (00:00) 8.4 -- (--) -- (--) 7.8 1.6 1.6 3 1.6
31-01-2018 12.3 (17:20) 6.1 (00:00) 9.2 -- (--) -- (--) 1.2 0 0 0 1.2
30-01-2018 11 (00:40) 9.6 (00:00) 10.3 -- (--) -- (--) 0 0 0 0 0
29-01-2018 12.5 (13:10) 5.7 (00:00) 9.1 -- (--) -- (--) 0 0 0 0 0
28-01-2018 13 (13:00) 7.2 (00:00) 10.1 -- (--) -- (--) 0.2 0 0 0.2 0
27-01-2018 11.5 (13:20) 8.8 (00:00) 10.2 -- (--) -- (--) 0 0 0 0 0
26-01-2018 11.6 (12:40) 8 (00:00) 9.8 -- (--) -- (--) 4 0.2 2 1 0.8
25-01-2018 10.6 (00:00) 7.2 (00:00) 8.9 -- (--) -- (--) 7.4 1 2.8 3.4 0.2
24-01-2018 15.7 (16:00) 9.5 (00:00) 12.6 -- (--) -- (--) 8.2 0 0 0 8.2
23-01-2018 17.5 (13:40) 12.1 (00:00) 14.8 -- (--) -- (--) 0 0 0 0 0
22-01-2018 17.5 (13:10) 13 (00:00) 15.3 -- (--) -- (--) 0 0 0 0 0

Gráficas

Temp. máximas Temp. mínimas Temp. medias Precipitaciones Rachas de viento máximas Velocidades máximas media en intervalos de 10 minutos

Datos horarios

Fecha y hora oficial Temperatura (ºC) Velocidad del viento (km/h) Dirección del viento Racha (km/h) Dirección de racha Precipitación (mm) Presión (hPa) Tendencia (hPa) Humedad (%)
2018-02-20 23:00:00 10.6 -- -- -- -- 0 -- -- 92
2018-02-20 22:00:00 10.5 -- -- -- -- 0 -- -- 95
2018-02-20 21:00:00 10.5 -- -- -- -- 0.4 -- -- 96
2018-02-20 20:00:00 10.3 -- -- -- -- 1.8 -- -- 96
2018-02-20 19:00:00 11 -- -- -- -- 0 -- -- 91
2018-02-20 18:00:00 11.9 -- -- -- -- 0 -- -- 86
2018-02-20 17:00:00 12.3 -- -- -- -- 0 -- -- 85
2018-02-20 16:00:00 12.4 -- -- -- -- 0 -- -- 86
2018-02-20 15:00:00 12.6 -- -- -- -- 0 -- -- 85
2018-02-20 14:00:00 13.1 -- -- -- -- 0 -- -- 84
2018-02-20 13:00:00 12.5 -- -- -- -- 0 -- -- 85
2018-02-20 12:00:00 13.5 -- -- -- -- 0 -- -- 78
2018-02-20 11:00:00 12.9 -- -- -- -- 0 -- -- 84
2018-02-20 10:00:00 11.9 -- -- -- -- 0 -- -- 86
2018-02-20 09:00:00 10.9 -- -- -- -- 0 -- -- 89
2018-02-20 08:00:00 10.6 -- -- -- -- 0 -- -- 89
2018-02-20 07:00:00 11 -- -- -- -- 0 -- -- 89
2018-02-20 06:00:00 10.8 -- -- -- -- 0 -- -- 92
2018-02-20 05:00:00 10.2 -- -- -- -- 0 -- -- 92
2018-02-20 04:00:00 10.8 -- -- -- -- 0 -- -- 92
2018-02-20 03:00:00 10.9 -- -- -- -- 0 -- -- 90
2018-02-20 02:00:00 11 -- -- -- -- 0 -- -- 89
2018-02-20 01:00:00 11 -- -- -- -- 0 -- -- 90
2018-02-20 00:00:00 11.1 -- -- -- -- 0 -- -- 89
2018-02-19 23:00:00 11.1 -- -- -- -- 0 -- -- 90
2018-02-19 22:00:00 11.2 -- -- -- -- 0 -- -- 90
2018-02-19 21:00:00 11.3 -- -- -- -- 0 -- -- 91
2018-02-19 20:00:00 11.2 -- -- -- -- 0 -- -- 92
2018-02-19 19:00:00 11.5 -- -- -- -- 0 -- -- 91
2018-02-19 18:00:00 11.7 -- -- -- -- 0 -- -- 91
2018-02-19 17:00:00 12.1 -- -- -- -- 0 -- -- 90
2018-02-19 16:00:00 12.3 -- -- -- -- 0 -- -- 89
2018-02-19 15:00:00 12.2 -- -- -- -- 0 -- -- 87
2018-02-19 14:00:00 12.2 -- -- -- -- 0 -- -- 85
2018-02-19 13:00:00 11.4 -- -- -- -- 0 -- -- 92
2018-02-19 12:00:00 11.5 -- -- -- -- 0 -- -- 90
2018-02-19 11:00:00 11.6 -- -- -- -- 0 -- -- 92
2018-02-19 10:00:00 11.1 -- -- -- -- 0 -- -- 90
2018-02-19 09:00:00 10.7 -- -- -- -- 0 -- -- 92
2018-02-19 08:00:00 10.6 -- -- -- -- 0 -- -- 92
2018-02-19 07:00:00 10.6 -- -- -- -- 0 -- -- 92
2018-02-19 06:00:00 10.6 -- -- -- -- 0 -- -- 92
2018-02-19 05:00:00 10.6 -- -- -- -- 0 -- -- 91
2018-02-19 04:00:00 10.8 -- -- -- -- 0 -- -- 89
2018-02-19 03:00:00 10.7 -- -- -- -- 0 -- -- 89
2018-02-19 02:00:00 10.7 -- -- -- -- 0 -- -- 89
2018-02-19 01:00:00 10.3 -- -- -- -- 0 -- -- 90
2018-02-19 00:00:00 10 -- -- -- -- 0 -- -- 89
2018-02-18 23:00:00 10.3 -- -- -- -- 0 -- -- 89
2018-02-18 22:00:00 10.9 -- -- -- -- 0 -- -- 87
2018-02-18 21:00:00 11.3 -- -- -- -- 0 -- -- 87
2018-02-18 20:00:00 11.3 -- -- -- -- 0 -- -- 88
2018-02-18 19:00:00 11.5 -- -- -- -- 0 -- -- 88
2018-02-18 18:00:00 12.1 -- -- -- -- 0 -- -- 87
2018-02-18 17:00:00 12.3 -- -- -- -- 0 -- -- 86
2018-02-18 16:00:00 12.8 -- -- -- -- 0 -- -- 83
2018-02-18 15:00:00 12.8 -- -- -- -- 0 -- -- 80
2018-02-18 14:00:00 14 -- -- -- -- 0 -- -- 74
2018-02-18 13:00:00 13.1 -- -- -- -- 0 -- -- 77
2018-02-18 12:00:00 12.5 -- -- -- -- 0 -- -- 77
2018-02-18 11:00:00 11.8 -- -- -- -- 0 -- -- 81
2018-02-18 10:00:00 10.8 -- -- -- -- 0 -- -- 83
2018-02-18 09:00:00 9.6 -- -- -- -- 0 -- -- 82
2018-02-18 08:00:00 8.4 -- -- -- -- 0 -- -- 84
2018-02-18 07:00:00 6.7 -- -- -- -- 0 -- -- 88
2018-02-18 06:00:00 7.1 -- -- -- -- 0 -- -- 90
2018-02-18 05:00:00 7.9 -- -- -- -- 0 -- -- 91
2018-02-18 04:00:00 7.9 -- -- -- -- 0 -- -- 92
2018-02-18 03:00:00 7.5 -- -- -- -- 0 -- -- 92
2018-02-18 02:00:00 7.1 -- -- -- -- 0 -- -- 92
2018-02-18 01:00:00 7.1 -- -- -- -- 0 -- -- 92
2018-02-18 00:00:00 7.1 -- -- -- -- 0 -- -- 92
2018-02-17 23:00:00 7.2 -- -- -- -- 0 -- -- 91
2018-02-17 22:00:00 7.4 -- -- -- -- 0 -- -- 91
2018-02-17 21:00:00 7.6 -- -- -- -- 0 -- -- 89
2018-02-17 20:00:00 7.8 -- -- -- -- 0 -- -- 88
2018-02-17 19:00:00 8.7 -- -- -- -- 0 -- -- 86
2018-02-17 18:00:00 9.9 -- -- -- -- 0 -- -- 80
2018-02-17 17:00:00 11.3 -- -- -- -- 0 -- -- 70
2018-02-17 16:00:00 11.6 -- -- -- -- 0 -- -- 69
2018-02-17 15:00:00 12.7 -- -- -- -- 0 -- -- 67
2018-02-17 14:00:00 12.4 -- -- -- -- 0 -- -- 70
2018-02-17 13:00:00 12.6 -- -- -- -- 0 -- -- 69
2018-02-17 12:00:00 12.3 -- -- -- -- 0 -- -- 72
2018-02-17 11:00:00 11.5 -- -- -- -- 0.2 -- -- 77
2018-02-17 10:00:00 9.7 -- -- -- -- 0 -- -- 83
2018-02-17 09:00:00 9.2 -- -- -- -- 0 -- -- 88
2018-02-17 08:00:00 8.8 -- -- -- -- 0 -- -- 88
2018-02-17 07:00:00 9.3 -- -- -- -- 0 -- -- 87
2018-02-17 06:00:00 9.3 -- -- -- -- 0 -- -- 85
2018-02-17 05:00:00 8.8 -- -- -- -- 0 -- -- 85
2018-02-17 04:00:00 9 -- -- -- -- 0 -- -- 82
2018-02-17 03:00:00 8.4 -- -- -- -- 0 -- -- 85
2018-02-17 02:00:00 8.7 -- -- -- -- 0 -- -- 86
2018-02-17 01:00:00 8.9 -- -- -- -- 0 -- -- 92
2018-02-17 00:00:00 8.5 -- -- -- -- 0 -- -- 94
2018-02-16 23:00:00 8.7 -- -- -- -- 0.4 -- -- 94
2018-02-16 22:00:00 8.9 -- -- -- -- 1.2 -- -- 95
2018-02-16 21:00:00 10 -- -- -- -- 0.8 -- -- 96
2018-02-16 20:00:00 10.5 -- -- -- -- 3.2 -- -- 98
2018-02-16 19:00:00 11.6 -- -- -- -- 2 -- -- 98
2018-02-16 18:00:00 11.6 -- -- -- -- 2.2 -- -- 98
2018-02-16 17:00:00 11.8 -- -- -- -- 6.6 -- -- 98
2018-02-16 16:00:00 12.1 -- -- -- -- 2.4 -- -- 98
2018-02-16 15:00:00 12.6 -- -- -- -- 1 -- -- 98
2018-02-16 14:00:00 12.9 -- -- -- -- 1 -- -- 98
2018-02-16 13:00:00 13.1 -- -- -- -- 0.4 -- -- 98
2018-02-16 12:00:00 12.7 -- -- -- -- 0.6 -- -- 99
2018-02-16 11:00:00 12.2 -- -- -- -- 0.6 -- -- 99
2018-02-16 10:00:00 11.6 -- -- -- -- 3 -- -- 99
2018-02-16 09:00:00 11.4 -- -- -- -- 3.8 -- -- 99
2018-02-16 08:00:00 11.2 -- -- -- -- 0.8 -- -- 99
2018-02-16 07:00:00 11.2 -- -- -- -- 2.6 -- -- 99
2018-02-16 06:00:00 11.2 -- -- -- -- 0.8 -- -- 99
2018-02-16 05:00:00 11.2 -- -- -- -- 0.8 -- -- 98
2018-02-16 04:00:00 11.4 -- -- -- -- 1.2 -- -- 98
2018-02-16 03:00:00 11.5 -- -- -- -- 0.8 -- -- 98
2018-02-16 02:00:00 11.6 -- -- -- -- 0.4 -- -- 98
2018-02-16 01:00:00 11.6 -- -- -- -- 0 -- -- 98
2018-02-16 00:00:00 11.6 -- -- -- -- 1.6 -- -- 97
2018-02-15 23:00:00 11.7 -- -- -- -- 1.2 -- -- 97
2018-02-15 22:00:00 11.9 -- -- -- -- 0.2 -- -- 96
2018-02-15 21:00:00 12.8 -- -- -- -- 0 -- -- 94
2018-02-15 20:00:00 14.5 -- -- -- -- 0 -- -- 89
2018-02-15 19:00:00 14.8 -- -- -- -- 0.2 -- -- 91
2018-02-15 18:00:00 15.1 -- -- -- -- 0.2 -- -- 91
2018-02-15 17:00:00 17.1 -- -- -- -- 0 -- -- 82
2018-02-15 16:00:00 17.6 -- -- -- -- 0 -- -- 80
2018-02-15 15:00:00 17.2 -- -- -- -- 0.2 -- -- 84
2018-02-15 14:00:00 17.1 -- -- -- -- 0.2 -- -- 81
2018-02-15 13:00:00 18 -- -- -- -- 0 -- -- 73
2018-02-15 12:00:00 16.8 -- -- -- -- 0 -- -- 77
2018-02-15 11:00:00 16 -- -- -- -- 0 -- -- 78
2018-02-15 10:00:00 15.6 -- -- -- -- 0 -- -- 78
2018-02-15 09:00:00 14.5 -- -- -- -- 0 -- -- 82
2018-02-15 08:00:00 15.4 -- -- -- -- 0 -- -- 77
2018-02-15 07:00:00 14.7 -- -- -- -- 0 -- -- 82
2018-02-15 06:00:00 13.9 -- -- -- -- 0 -- -- 85
2018-02-15 05:00:00 13.9 -- -- -- -- 0 -- -- 84
2018-02-15 04:00:00 14.7 -- -- -- -- 0 -- -- 81
2018-02-15 03:00:00 15.6 -- -- -- -- 0 -- -- 77
2018-02-15 02:00:00 15.9 -- -- -- -- 0 -- -- 75
2018-02-15 01:00:00 15.9 -- -- -- -- 0 -- -- 75
2018-02-15 00:00:00 15.9 -- -- -- -- 0 -- -- 76
2018-02-14 23:00:00 16.1 -- -- -- -- 0 -- -- 74
2018-02-14 22:00:00 16 -- -- -- -- 0 -- -- 76
2018-02-14 21:00:00 16.7 -- -- -- -- 0 -- -- 72
2018-02-14 20:00:00 16.3 -- -- -- -- 0 -- -- 74
2018-02-14 19:00:00 16.5 -- -- -- -- 0 -- -- 73
2018-02-14 18:00:00 17.1 -- -- -- -- 0 -- -- 71
2018-02-14 17:00:00 17.4 -- -- -- -- 0 -- -- 71
2018-02-14 16:00:00 17.4 -- -- -- -- 0 -- -- 71
2018-02-14 15:00:00 17.4 -- -- -- -- 0 -- -- 71
2018-02-14 14:00:00 17.6 -- -- -- -- 0 -- -- 69
2018-02-14 13:00:00 17.4 -- -- -- -- 0 -- -- 69
2018-02-14 12:00:00 17 -- -- -- -- 0 -- -- 70
2018-02-14 11:00:00 15.5 -- -- -- -- 0 -- -- 74
2018-02-14 10:00:00 15 -- -- -- -- 0 -- -- 77
2018-02-14 09:00:00 13.4 -- -- -- -- 0 -- -- 83
2018-02-14 08:00:00 12.9 -- -- -- -- 0 -- -- 81
2018-02-14 07:00:00 12.8 -- -- -- -- 0 -- -- 79
2018-02-14 06:00:00 12.9 -- -- -- -- 0 -- -- 77
2018-02-14 05:00:00 12.8 -- -- -- -- 0 -- -- 76
2018-02-14 04:00:00 12.8 -- -- -- -- 0 -- -- 74
2018-02-14 03:00:00 12.8 -- -- -- -- 0 -- -- 72
2018-02-14 02:00:00 12.5 -- -- -- -- 0 -- -- 75
2018-02-14 01:00:00 11.8 -- -- -- -- 0 -- -- 81
2018-02-14 00:00:00 10.5 -- -- -- -- 0 -- -- 93
2018-02-13 23:00:00 9.5 -- -- -- -- 0 -- -- 96
2018-02-13 22:00:00 9 -- -- -- -- 0.2 -- -- 96
2018-02-13 21:00:00 8.7 -- -- -- -- 1 -- -- 95
2018-02-13 20:00:00 8.8 -- -- -- -- 0.8 -- -- 94
2018-02-13 19:00:00 9.1 -- -- -- -- 0.6 -- -- 92
2018-02-13 18:00:00 9.6 -- -- -- -- 0.2 -- -- 89
2018-02-13 17:00:00 10.1 -- -- -- -- 0.6 -- -- 80
2018-02-13 16:00:00 11.5 -- -- -- -- 0 -- -- 70
2018-02-13 15:00:00 11.7 -- -- -- -- 0 -- -- 70
2018-02-13 14:00:00 11.3 -- -- -- -- 0 -- -- 73
2018-02-13 13:00:00 10.3 -- -- -- -- 0 -- -- 82
2018-02-13 12:00:00 10.4 -- -- -- -- 0.2 -- -- 87
2018-02-13 11:00:00 9.1 -- -- -- -- 0.2 -- -- 91
2018-02-13 10:00:00 9.1 -- -- -- -- 1.2 -- -- 92
2018-02-13 09:00:00 8.8 -- -- -- -- 4.6 -- -- 93
2018-02-13 08:00:00 9 -- -- -- -- 1.4 -- -- 86
2018-02-13 07:00:00 9 -- -- -- -- 0.2 -- -- 75
2018-02-13 06:00:00 8.3 -- -- -- -- 0 -- -- 72
2018-02-13 05:00:00 6.8 -- -- -- -- 0 -- -- 79
2018-02-13 04:00:00 6.2 -- -- -- -- 0 -- -- 74
2018-02-13 03:00:00 6.4 -- -- -- -- 0 -- -- 71
2018-02-13 02:00:00 7.7 -- -- -- -- 0 -- -- 63
2018-02-13 01:00:00 7 -- -- -- -- 0.2 -- -- 60
2018-02-13 00:00:00 6.7 -- -- -- -- 0 -- -- 60
2018-02-12 23:00:00 5.5 -- -- -- -- 0 -- -- 79
2018-02-12 22:00:00 5.1 -- -- -- -- 0 -- -- 81
2018-02-12 21:00:00 4.5 -- -- -- -- 0 -- -- 86
2018-02-12 20:00:00 5.2 -- -- -- -- 0 -- -- 83
2018-02-12 19:00:00 6 -- -- -- -- 0 -- -- 81
2018-02-12 18:00:00 6.7 -- -- -- -- 0 -- -- 80
2018-02-12 17:00:00 6.7 -- -- -- -- 0 -- -- 78
2018-02-12 16:00:00 7.4 -- -- -- -- 0 -- -- 77
2018-02-12 15:00:00 7.2 -- -- -- -- 0.6 -- -- 87
2018-02-12 14:00:00 5.4 -- -- -- -- 1.2 -- -- 84
2018-02-12 13:00:00 8.5 -- -- -- -- 0 -- -- 70
2018-02-12 12:00:00 8.6 -- -- -- -- 0 -- -- 73
2018-02-12 11:00:00 7.7 -- -- -- -- 0 -- -- 78
2018-02-12 10:00:00 4.9 -- -- -- -- 0.2 -- -- 92
2018-02-12 09:00:00 4.8 -- -- -- -- 0 -- -- 91
2018-02-12 08:00:00 5.4 -- -- -- -- 0 -- -- 84
2018-02-12 07:00:00 4.9 -- -- -- -- 0 -- -- 80
2018-02-12 06:00:00 5 -- -- -- -- 0 -- -- 87
2018-02-12 05:00:00 5.4 -- -- -- -- 0 -- -- 83
2018-02-12 04:00:00 6.3 -- -- -- -- 0 -- -- 78
2018-02-12 03:00:00 7.1 -- -- -- -- 0 -- -- 74
2018-02-12 02:00:00 6.9 -- -- -- -- 0 -- -- 77
2018-02-12 01:00:00 7.3 -- -- -- -- 0 -- -- 67
2018-02-12 00:00:00 7.1 -- -- -- -- 0 -- -- 68
2018-02-11 23:00:00 7.4 -- -- -- -- 0 -- -- 66
2018-02-11 22:00:00 7.3 -- -- -- -- 0 -- -- 68
2018-02-11 21:00:00 7.8 -- -- -- -- 0 -- -- 73
2018-02-11 20:00:00 7.8 -- -- -- -- 0.2 -- -- 76
2018-02-11 19:00:00 8.9 -- -- -- -- 0.4 -- -- 77
2018-02-11 18:00:00 9.6 -- -- -- -- 0 -- -- 71
2018-02-11 17:00:00 9.7 -- -- -- -- 0 -- -- 79
2018-02-11 16:00:00 9.8 -- -- -- -- 0.2 -- -- 88
2018-02-11 15:00:00 9.8 -- -- -- -- 0.2 -- -- 94
2018-02-11 14:00:00 9.5 -- -- -- -- 1 -- -- 95
2018-02-11 13:00:00 10.2 -- -- -- -- 0.8 -- -- 97
2018-02-11 12:00:00 10.3 -- -- -- -- 1.2 -- -- 96
2018-02-11 11:00:00 10.4 -- -- -- -- 6.6 -- -- 94
2018-02-11 10:00:00 12.8 -- -- -- -- 0.4 -- -- 87
2018-02-11 09:00:00 13.2 -- -- -- -- 0 -- -- 83
2018-02-11 08:00:00 11.4 -- -- -- -- 0 -- -- 89
2018-02-11 07:00:00 12.1 -- -- -- -- 0 -- -- 87
2018-02-11 06:00:00 12.8 -- -- -- -- 0 -- -- 85
2018-02-11 05:00:00 12.7 -- -- -- -- 0 -- -- 85
2018-02-11 04:00:00 12.8 -- -- -- -- 0 -- -- 86
2018-02-11 03:00:00 13 -- -- -- -- 0 -- -- 84
2018-02-11 02:00:00 13.1 -- -- -- -- 0 -- -- 83
2018-02-11 01:00:00 13.2 -- -- -- -- 0 -- -- 83
2018-02-11 00:00:00 12.9 -- -- -- -- 0 -- -- 83
2018-02-10 23:00:00 12.7 -- -- -- -- 0 -- -- 81
2018-02-10 22:00:00 12.6 -- -- -- -- 0 -- -- 80
2018-02-10 21:00:00 12.3 -- -- -- -- 0 -- -- 80
2018-02-10 20:00:00 10.5 -- -- -- -- 0 -- -- 89
2018-02-10 19:00:00 10.1 -- -- -- -- 0 -- -- 91
2018-02-10 18:00:00 10.3 -- -- -- -- 0.2 -- -- 89
2018-02-10 17:00:00 10.7 -- -- -- -- 0 -- -- 83
2018-02-10 16:00:00 11.4 -- -- -- -- 0 -- -- 76
2018-02-10 15:00:00 11.5 -- -- -- -- 0 -- -- 74
2018-02-10 14:00:00 11.2 -- -- -- -- 0.2 -- -- 76
2018-02-10 13:00:00 11 -- -- -- -- 0 -- -- 75
2018-02-10 12:00:00 10.4 -- -- -- -- 0 -- -- 75
2018-02-10 11:00:00 9.2 -- -- -- -- 0 -- -- 79
2018-02-10 10:00:00 8.1 -- -- -- -- 0 -- -- 83
2018-02-10 09:00:00 7 -- -- -- -- 0.2 -- -- 88
2018-02-10 08:00:00 7.3 -- -- -- -- 0 -- -- 84
2018-02-10 07:00:00 6.7 -- -- -- -- 0 -- -- 87
2018-02-10 06:00:00 6.4 -- -- -- -- 0 -- -- 89
2018-02-10 05:00:00 6.1 -- -- -- -- 0 -- -- 92
2018-02-10 04:00:00 5.9 -- -- -- -- 0 -- -- 92
2018-02-10 03:00:00 6.2 -- -- -- -- 0 -- -- 90
2018-02-10 02:00:00 6.8 -- -- -- -- 0 -- -- 87
2018-02-10 01:00:00 6.5 -- -- -- -- 0.2 -- -- 87
2018-02-10 00:00:00 7.8 -- -- -- -- 0 -- -- 77
2018-02-09 23:00:00 7.6 -- -- -- -- 0 -- -- 79
2018-02-09 22:00:00 8.4 -- -- -- -- 0 -- -- 77
2018-02-09 21:00:00 7.6 -- -- -- -- 0 -- -- 78
2018-02-09 20:00:00 7.4 -- -- -- -- 0.2 -- -- 83
2018-02-09 19:00:00 8.1 -- -- -- -- 0 -- -- 73
2018-02-09 18:00:00 8.9 -- -- -- -- 0 -- -- 68
2018-02-09 17:00:00 9.4 -- -- -- -- 0 -- -- 67
2018-02-09 16:00:00 9.4 -- -- -- -- 0 -- -- 68
2018-02-09 15:00:00 9.5 -- -- -- -- 0 -- -- 68
2018-02-09 14:00:00 9.3 -- -- -- -- 0 -- -- 76
2018-02-09 13:00:00 8.7 -- -- -- -- 1.2 -- -- 87
2018-02-09 12:00:00 9.8 -- -- -- -- 0 -- -- 85
2018-02-09 11:00:00 10.1 -- -- -- -- 0.2 -- -- 85
2018-02-09 10:00:00 9.6 -- -- -- -- 1.2 -- -- 91
2018-02-09 09:00:00 9.4 -- -- -- -- 2.2 -- -- 94
2018-02-09 08:00:00 10.2 -- -- -- -- 0 -- -- 92
2018-02-09 07:00:00 9.8 -- -- -- -- 0.4 -- -- 92
2018-02-09 06:00:00 9.5 -- -- -- -- 0.2 -- -- 93
2018-02-09 05:00:00 7.9 -- -- -- -- 0 -- -- 94
2018-02-09 04:00:00 7.7 -- -- -- -- 0 -- -- 94
2018-02-09 03:00:00 7.5 -- -- -- -- 0 -- -- 92
2018-02-09 02:00:00 7.7 -- -- -- -- 0.4 -- -- 88
2018-02-09 01:00:00 8.2 -- -- -- -- 0 -- -- 79
2018-02-09 00:00:00 8.1 -- -- -- -- 0 -- -- 78
2018-02-08 23:00:00 7.5 -- -- -- -- 0 -- -- 79
2018-02-08 22:00:00 7.5 -- -- -- -- 0 -- -- 77
2018-02-08 21:00:00 7.9 -- -- -- -- 0 -- -- 74
2018-02-08 20:00:00 8.1 -- -- -- -- 0 -- -- 72
2018-02-08 19:00:00 8.3 -- -- -- -- 0 -- -- 73
2018-02-08 18:00:00 9.3 -- -- -- -- 0 -- -- 70
2018-02-08 17:00:00 9.7 -- -- -- -- 0 -- -- 67
2018-02-08 16:00:00 10 -- -- -- -- 0 -- -- 65
2018-02-08 15:00:00 10.8 -- -- -- -- 0 -- -- 57
2018-02-08 14:00:00 10.9 -- -- -- -- 0 -- -- 60
2018-02-08 13:00:00 10 -- -- -- -- 0 -- -- 60
2018-02-08 12:00:00 8.9 -- -- -- -- 0 -- -- 66
2018-02-08 11:00:00 8.2 -- -- -- -- 0 -- -- 66
2018-02-08 10:00:00 6.1 -- -- -- -- 0 -- -- 81
2018-02-08 09:00:00 5.3 -- -- -- -- 0 -- -- 81
2018-02-08 08:00:00 4.7 -- -- -- -- 0 -- -- 83
2018-02-08 07:00:00 4.2 -- -- -- -- 0 -- -- 86
2018-02-08 06:00:00 4.1 -- -- -- -- 0 -- -- 86
2018-02-08 05:00:00 4.1 -- -- -- -- 0 -- -- 85
2018-02-08 04:00:00 4.4 -- -- -- -- 0 -- -- 81
2018-02-08 03:00:00 5 -- -- -- -- 0 -- -- 75
2018-02-08 02:00:00 6.8 -- -- -- -- 0 -- -- 72
2018-02-08 01:00:00 7 -- -- -- -- 0 -- -- 63
2018-02-08 00:00:00 6.5 -- -- -- -- 0 -- -- 61
2018-02-07 23:00:00 7 -- -- -- -- 0 -- -- 59
2018-02-07 22:00:00 7 -- -- -- -- 0 -- -- 64
2018-02-07 21:00:00 6 -- -- -- -- 0 -- -- 71
2018-02-07 20:00:00 6.3 -- -- -- -- 0.2 -- -- 67
2018-02-07 19:00:00 6.7 -- -- -- -- 0 -- -- 69
2018-02-07 18:00:00 6.8 -- -- -- -- 0 -- -- 64
2018-02-07 17:00:00 7.1 -- -- -- -- 0 -- -- 68
2018-02-07 16:00:00 6.7 -- -- -- -- 0.2 -- -- 72
2018-02-07 15:00:00 4.6 -- -- -- -- 0.6 -- -- 85
2018-02-07 14:00:00 5.9 -- -- -- -- 0.2 -- -- 79
2018-02-07 13:00:00 5.2 -- -- -- -- 0.6 -- -- 85
2018-02-07 12:00:00 6.3 -- -- -- -- 0.2 -- -- 78
2018-02-07 11:00:00 6.5 -- -- -- -- 0 -- -- 79
2018-02-07 10:00:00 4.9 -- -- -- -- 0.4 -- -- 88
2018-02-07 09:00:00 5.4 -- -- -- -- 0 -- -- 87
2018-02-07 08:00:00 4.9 -- -- -- -- 0.2 -- -- 87
2018-02-07 07:00:00 6.3 -- -- -- -- 0 -- -- 82
2018-02-07 06:00:00 5.6 -- -- -- -- 0.8 -- -- 85
2018-02-07 05:00:00 5.1 -- -- -- -- 0.6 -- -- 85
2018-02-07 04:00:00 6.4 -- -- -- -- 0.2 -- -- 82
2018-02-07 03:00:00 5.9 -- -- -- -- 0.4 -- -- 84
2018-02-07 02:00:00 6.5 -- -- -- -- 0.4 -- -- 82
2018-02-07 01:00:00 6.6 -- -- -- -- 0 -- -- 77
2018-02-07 00:00:00 7.5 -- -- -- -- 0.2 -- -- 74
2018-02-06 23:00:00 7.8 -- -- -- -- 0 -- -- 74
2018-02-06 22:00:00 7.2 -- -- -- -- 0 -- -- 80
2018-02-06 21:00:00 5.8 -- -- -- -- 0.8 -- -- 90
2018-02-06 20:00:00 5.6 -- -- -- -- 3 -- -- 91
2018-02-06 19:00:00 6.1 -- -- -- -- 1.2 -- -- 89
2018-02-06 18:00:00 7.7 -- -- -- -- 0.2 -- -- 75
2018-02-06 17:00:00 8 -- -- -- -- 0 -- -- 70
2018-02-06 16:00:00 7.7 -- -- -- -- 0.4 -- -- 76
2018-02-06 15:00:00 8.1 -- -- -- -- 0 -- -- 68
2018-02-06 14:00:00 8.3 -- -- -- -- 0 -- -- 69
2018-02-06 13:00:00 8.1 -- -- -- -- 0 -- -- 71
2018-02-06 12:00:00 7.3 -- -- -- -- 0 -- -- 80
2018-02-06 11:00:00 5.5 -- -- -- -- 0.8 -- -- 87
2018-02-06 10:00:00 5.2 -- -- -- -- 2 -- -- 89
2018-02-06 09:00:00 5.4 -- -- -- -- 0 -- -- 83
2018-02-06 08:00:00 5.9 -- -- -- -- 0 -- -- 80
2018-02-06 07:00:00 4.5 -- -- -- -- 1.6 -- -- 90
2018-02-06 06:00:00 6.8 -- -- -- -- 0 -- -- 70
2018-02-06 05:00:00 7 -- -- -- -- 0 -- -- 71
2018-02-06 04:00:00 7.2 -- -- -- -- 0 -- -- 70
2018-02-06 03:00:00 5.2 -- -- -- -- 0 -- -- 76
2018-02-06 02:00:00 4.8 -- -- -- -- 0 -- -- 80
2018-02-06 01:00:00 5 -- -- -- -- 0 -- -- 73
2018-02-06 00:00:00 5.5 -- -- -- -- 0 -- -- 71
2018-02-05 23:00:00 6.7 -- -- -- -- 0 -- -- 64
2018-02-05 22:00:00 6.2 -- -- -- -- 0.2 -- -- 69
2018-02-05 21:00:00 6.5 -- -- -- -- 0.2 -- -- 67
2018-02-05 20:00:00 7.3 -- -- -- -- 0 -- -- 58
2018-02-05 19:00:00 7.1 -- -- -- -- 0 -- -- 59
2018-02-05 18:00:00 7.1 -- -- -- -- 0 -- -- 59
2018-02-05 17:00:00 7.2 -- -- -- -- 0 -- -- 58
2018-02-05 16:00:00 7.1 -- -- -- -- 0 -- -- 61
2018-02-05 15:00:00 7.4 -- -- -- -- 0 -- -- 66
2018-02-05 14:00:00 6.1 -- -- -- -- 0.2 -- -- 67
2018-02-05 13:00:00 7.1 -- -- -- -- 0 -- -- 66
2018-02-05 12:00:00 7.8 -- -- -- -- 0 -- -- 61
2018-02-05 11:00:00 6.9 -- -- -- -- 0 -- -- 66
2018-02-05 10:00:00 7.4 -- -- -- -- 0 -- -- 61
2018-02-05 09:00:00 7.3 -- -- -- -- 0 -- -- 65
2018-02-05 08:00:00 7.5 -- -- -- -- 0 -- -- 65
2018-02-05 07:00:00 7.9 -- -- -- -- 0 -- -- 77
2018-02-05 06:00:00 7.8 -- -- -- -- 0 -- -- 81
2018-02-05 05:00:00 8 -- -- -- -- 0.2 -- -- 78
2018-02-05 04:00:00 6.4 -- -- -- -- 0.8 -- -- 85
2018-02-05 03:00:00 7.6 -- -- -- -- 0.4 -- -- 83
2018-02-05 02:00:00 6.8 -- -- -- -- 1.2 -- -- 85
2018-02-05 01:00:00 7.9 -- -- -- -- 0 -- -- 76
2018-02-05 00:00:00 8.5 -- -- -- -- 0 -- -- 68
2018-02-04 23:00:00 8.5 -- -- -- -- 0 -- -- 67
2018-02-04 22:00:00 8.7 -- -- -- -- 0 -- -- 68
2018-02-04 21:00:00 8.6 -- -- -- -- 0 -- -- 77
2018-02-04 20:00:00 7.6 -- -- -- -- 1.8 -- -- 86
2018-02-04 19:00:00 7.5 -- -- -- -- 1 -- -- 85
2018-02-04 18:00:00 8.7 -- -- -- -- 0 -- -- 77
2018-02-04 17:00:00 8.5 -- -- -- -- 0 -- -- 80
2018-02-04 16:00:00 8.9 -- -- -- -- 0.2 -- -- 80
2018-02-04 15:00:00 7.9 -- -- -- -- 1 -- -- 86
2018-02-04 14:00:00 8.1 -- -- -- -- 0.4 -- -- 84
2018-02-04 13:00:00 9.3 -- -- -- -- 0 -- -- 73
2018-02-04 12:00:00 8.9 -- -- -- -- 0.2 -- -- 76
2018-02-04 11:00:00 7.9 -- -- -- -- 0.6 -- -- 81
2018-02-04 10:00:00 8.1 -- -- -- -- 0 -- -- 77
2018-02-04 09:00:00 6.7 -- -- -- -- 0.2 -- -- 82
2018-02-04 08:00:00 7.8 -- -- -- -- 0 -- -- 71
2018-02-04 07:00:00 7.6 -- -- -- -- 0.2 -- -- 76
2018-02-04 06:00:00 7.2 -- -- -- -- 1 -- -- 77
2018-02-04 05:00:00 6.2 -- -- -- -- 0.2 -- -- 84
2018-02-04 04:00:00 6.7 -- -- -- -- 0.2 -- -- 80
2018-02-04 03:00:00 7.6 -- -- -- -- 0 -- -- 65
2018-02-04 02:00:00 6.4 -- -- -- -- 0.8 -- -- 83
2018-02-04 01:00:00 7.3 -- -- -- -- 0 -- -- 77
2018-02-04 00:00:00 8.4 -- -- -- -- 0 -- -- 74
2018-02-03 23:00:00 8.4 -- -- -- -- 0 -- -- 77
2018-02-03 22:00:00 7.8 -- -- -- -- 1.8 -- -- 86
2018-02-03 21:00:00 7.1 -- -- -- -- 2 -- -- 89
2018-02-03 20:00:00 8.2 -- -- -- -- 1.4 -- -- 91
2018-02-03 19:00:00 7.9 -- -- -- -- 2 -- -- 91
2018-02-03 18:00:00 8.6 -- -- -- -- 2.2 -- -- 93
2018-02-03 17:00:00 9 -- -- -- -- 1.8 -- -- 90
2018-02-03 16:00:00 8.9 -- -- -- -- 0.4 -- -- 91
2018-02-03 15:00:00 10.3 -- -- -- -- 0 -- -- 88
2018-02-03 14:00:00 9.3 -- -- -- -- 1 -- -- 94
2018-02-03 13:00:00 9.4 -- -- -- -- 4 -- -- 94
2018-02-03 12:00:00 9.4 -- -- -- -- 2 -- -- 91
2018-02-03 11:00:00 10.4 -- -- -- -- 0.2 -- -- 83
2018-02-03 10:00:00 10.5 -- -- -- -- 0 -- -- 78
2018-02-03 09:00:00 9.3 -- -- -- -- 0 -- -- 81
2018-02-03 08:00:00 8.4 -- -- -- -- 0 -- -- 82
2018-02-03 07:00:00 8 -- -- -- -- 0 -- -- 83
2018-02-03 06:00:00 7.6 -- -- -- -- 0.2 -- -- 87
2018-02-03 05:00:00 7.8 -- -- -- -- 0 -- -- 84
2018-02-03 04:00:00 7.7 -- -- -- -- 0 -- -- 83
2018-02-03 03:00:00 7.3 -- -- -- -- 0 -- -- 85
2018-02-03 02:00:00 6.6 -- -- -- -- 0.4 -- -- 89
2018-02-03 01:00:00 7 -- -- -- -- 0.8 -- -- 84
2018-02-03 00:00:00 6.9 -- -- -- -- 0.2 -- -- 84
2018-02-02 23:00:00 7.9 -- -- -- -- 0 -- -- 75
2018-02-02 22:00:00 7.6 -- -- -- -- 0 -- -- 77
2018-02-02 21:00:00 5.7 -- -- -- -- 0 -- -- 90
2018-02-02 20:00:00 6.2 -- -- -- -- 0 -- -- 87
2018-02-02 19:00:00 8.3 -- -- -- -- 0 -- -- 70
2018-02-02 18:00:00 7.2 -- -- -- -- 0 -- -- 83
2018-02-02 17:00:00 8.1 -- -- -- -- 0 -- -- 84
2018-02-02 16:00:00 8.3 -- -- -- -- 0.2 -- -- 79
2018-02-02 15:00:00 7.8 -- -- -- -- 1 -- -- 84
2018-02-02 14:00:00 10.2 -- -- -- -- 0 -- -- 72
2018-02-02 13:00:00 9.2 -- -- -- -- 0 -- -- 68
2018-02-02 12:00:00 7.9 -- -- -- -- 0.4 -- -- 82
2018-02-02 11:00:00 6.8 -- -- -- -- 0.6 -- -- 88
2018-02-02 10:00:00 6 -- -- -- -- 0.4 -- -- 82
2018-02-02 09:00:00 5.1 -- -- -- -- 1.8 -- -- 87
2018-02-02 08:00:00 7.4 -- -- -- -- 0 -- -- 75
2018-02-02 07:00:00 7.2 -- -- -- -- 0 -- -- 78
2018-02-02 06:00:00 5.7 -- -- -- -- 3.4 -- -- 86
2018-02-02 05:00:00 7.2 -- -- -- -- 0 -- -- 77
2018-02-02 04:00:00 7.4 -- -- -- -- 0.4 -- -- 71
2018-02-02 03:00:00 9 -- -- -- -- 0 -- -- 71
2018-02-02 02:00:00 8.9 -- -- -- -- 0.2 -- -- 67
2018-02-02 01:00:00 8.7 -- -- -- -- 0 -- -- 73
2018-02-02 00:00:00 8.4 -- -- -- -- 0.4 -- -- 76
2018-02-01 23:00:00 7.3 -- -- -- -- 1 -- -- 82
2018-02-01 22:00:00 9.1 -- -- -- -- 0 -- -- 70
2018-02-01 21:00:00 9.1 -- -- -- -- 0 -- -- 72
2018-02-01 20:00:00 9.2 -- -- -- -- 0 -- -- 70
2018-02-01 19:00:00 8.2 -- -- -- -- 0.2 -- -- 74
2018-02-01 18:00:00 7.8 -- -- -- -- 0 -- -- 85
2018-02-01 17:00:00 7.4 -- -- -- -- 0 -- -- 84
2018-02-01 16:00:00 7.9 -- -- -- -- 1.2 -- -- 84
2018-02-01 15:00:00 8.5 -- -- -- -- 0 -- -- 82
2018-02-01 14:00:00 7.2 -- -- -- -- 1 -- -- 81
2018-02-01 13:00:00 8.2 -- -- -- -- 0.8 -- -- 83
2018-02-01 12:00:00 8 -- -- -- -- 0.4 -- -- 83
2018-02-01 11:00:00 9.1 -- -- -- -- 0.2 -- -- 82
2018-02-01 10:00:00 8 -- -- -- -- 0.4 -- -- 85
2018-02-01 09:00:00 7.9 -- -- -- -- 0.4 -- -- 86
2018-02-01 08:00:00 9 -- -- -- -- 0 -- -- 83
2018-02-01 07:00:00 8.7 -- -- -- -- 0.2 -- -- 79
2018-02-01 06:00:00 8.9 -- -- -- -- 0 -- -- 75
2018-02-01 05:00:00 9.1 -- -- -- -- 0.4 -- -- 84
2018-02-01 04:00:00 9.2 -- -- -- -- 0 -- -- 81
2018-02-01 03:00:00 9.3 -- -- -- -- 0 -- -- 87
2018-02-01 02:00:00 9.2 -- -- -- -- 0.6 -- -- 92
2018-02-01 01:00:00 9.2 -- -- -- -- 0.6 -- -- 94
2018-02-01 00:00:00 9.9 -- -- -- -- 1 -- -- 92
2018-01-31 23:00:00 10.6 -- -- -- -- 0 -- -- 85
2018-01-31 22:00:00 10.1 -- -- -- -- 0 -- -- 85
2018-01-31 21:00:00 10.7 -- -- -- -- 0 -- -- 87
2018-01-31 20:00:00 11.2 -- -- -- -- 0.2 -- -- 88
2018-01-31 19:00:00 11.9 -- -- -- -- 0 -- -- 81
2018-01-31 18:00:00 12.2 -- -- -- -- 0 -- -- 78
2018-01-31 17:00:00 12 -- -- -- -- 0 -- -- 78
2018-01-31 16:00:00 11.3 -- -- -- -- 0 -- -- 79
2018-01-31 15:00:00 11 -- -- -- -- 0 -- -- 78
2018-01-31 14:00:00 11.3 -- -- -- -- 0 -- -- 76
2018-01-31 13:00:00 10.7 -- -- -- -- 0 -- -- 76
2018-01-31 12:00:00 10.5 -- -- -- -- 0 -- -- 78
2018-01-31 11:00:00 10 -- -- -- -- 0 -- -- 81
2018-01-31 10:00:00 8.5 -- -- -- -- 0 -- -- 91
2018-01-31 09:00:00 7.5 -- -- -- -- 0 -- -- 93
2018-01-31 08:00:00 6.1 -- -- -- -- 0 -- -- 92
2018-01-31 07:00:00 6.4 -- -- -- -- 0 -- -- 88
2018-01-31 06:00:00 7.4 -- -- -- -- 0 -- -- 87
2018-01-31 05:00:00 8.8 -- -- -- -- 0 -- -- 85
2018-01-31 04:00:00 8.9 -- -- -- -- 0 -- -- 86
2018-01-31 03:00:00 9 -- -- -- -- 0 -- -- 85
2018-01-31 02:00:00 9.1 -- -- -- -- 0 -- -- 85
2018-01-31 01:00:00 9.5 -- -- -- -- 0 -- -- 83
2018-01-31 00:00:00 9.7 -- -- -- -- 0 -- -- 82
2018-01-30 23:00:00 9.7 -- -- -- -- 0 -- -- 81
2018-01-30 22:00:00 9.9 -- -- -- -- 0 -- -- 81
2018-01-30 21:00:00 10 -- -- -- -- 0 -- -- 80
2018-01-30 20:00:00 10 -- -- -- -- 0 -- -- 82
2018-01-30 19:00:00 9.9 -- -- -- -- 0 -- -- 81
2018-01-30 18:00:00 10.1 -- -- -- -- 0 -- -- 81
2018-01-30 17:00:00 10.2 -- -- -- -- 0 -- -- 79
2018-01-30 16:00:00 10.4 -- -- -- -- 0 -- -- 78
2018-01-30 15:00:00 10.5 -- -- -- -- 0 -- -- 77
2018-01-30 14:00:00 10.7 -- -- -- -- 0 -- -- 78
2018-01-30 13:00:00 10.5 -- -- -- -- 0 -- -- 79
2018-01-30 12:00:00 10.1 -- -- -- -- 0 -- -- 80
2018-01-30 11:00:00 10.1 -- -- -- -- 0 -- -- 81
2018-01-30 10:00:00 9.9 -- -- -- -- 0 -- -- 81
2018-01-30 09:00:00 9.8 -- -- -- -- 0 -- -- 83
2018-01-30 08:00:00 10.2 -- -- -- -- 0 -- -- 83
2018-01-30 07:00:00 10.3 -- -- -- -- 0 -- -- 83
2018-01-30 06:00:00 10.1 -- -- -- -- 0 -- -- 83
2018-01-30 05:00:00 10.2 -- -- -- -- 0 -- -- 82
2018-01-30 04:00:00 10.5 -- -- -- -- 0 -- -- 81
2018-01-30 03:00:00 10.6 -- -- -- -- 0 -- -- 83
2018-01-30 02:00:00 10.9 -- -- -- -- 0 -- -- 84
2018-01-30 01:00:00 11 -- -- -- -- 0 -- -- 82
2018-01-30 00:00:00 10.9 -- -- -- -- 0 -- -- 83
2018-01-29 23:00:00 10.5 -- -- -- -- 0 -- -- 87
2018-01-29 22:00:00 10.4 -- -- -- -- 0 -- -- 87
2018-01-29 21:00:00 10.3 -- -- -- -- 0 -- -- 86
2018-01-29 20:00:00 10.5 -- -- -- -- 0 -- -- 86
2018-01-29 19:00:00 10.7 -- -- -- -- 0 -- -- 86
2018-01-29 18:00:00 11.1 -- -- -- -- 0 -- -- 85
2018-01-29 17:00:00 11.3 -- -- -- -- 0 -- -- 86
2018-01-29 16:00:00 11.2 -- -- -- -- 0 -- -- 82
2018-01-29 15:00:00 11.7 -- -- -- -- 0 -- -- 82
2018-01-29 14:00:00 12.1 -- -- -- -- 0 -- -- 73
2018-01-29 13:00:00 12.4 -- -- -- -- 0 -- -- 77
2018-01-29 12:00:00 11.9 -- -- -- -- 0 -- -- 80
2018-01-29 11:00:00 9.9 -- -- -- -- 0 -- -- 89
2018-01-29 10:00:00 7.2 -- -- -- -- 0 -- -- 93
2018-01-29 09:00:00 6 -- -- -- -- 0 -- -- 89
2018-01-29 08:00:00 6 -- -- -- -- 0 -- -- 92
2018-01-29 07:00:00 5.9 -- -- -- -- 0 -- -- 91
2018-01-29 06:00:00 5.8 -- -- -- -- 0 -- -- 92
2018-01-29 05:00:00 6.4 -- -- -- -- 0 -- -- 94
2018-01-29 04:00:00 6.4 -- -- -- -- 0 -- -- 94
2018-01-29 03:00:00 6.6 -- -- -- -- 0 -- -- 95
2018-01-29 02:00:00 6.7 -- -- -- -- 0 -- -- 94
2018-01-29 01:00:00 6.9 -- -- -- -- 0 -- -- 94
2018-01-29 00:00:00 7.2 -- -- -- -- 0 -- -- 94
2018-01-28 23:00:00 7.4 -- -- -- -- 0 -- -- 93
2018-01-28 22:00:00 7.7 -- -- -- -- 0 -- -- 91
2018-01-28 21:00:00 8.5 -- -- -- -- 0 -- -- 87
2018-01-28 20:00:00 9.3 -- -- -- -- 0 -- -- 84
2018-01-28 19:00:00 9.8 -- -- -- -- 0 -- -- 80
2018-01-28 18:00:00 10.2 -- -- -- -- 0 -- -- 77
2018-01-28 17:00:00 10.7 -- -- -- -- 0 -- -- 75
2018-01-28 16:00:00 11 -- -- -- -- 0 -- -- 74
2018-01-28 15:00:00 11.6 -- -- -- -- 0 -- -- 73
2018-01-28 14:00:00 12.8 -- -- -- -- 0.2 -- -- 73
2018-01-28 13:00:00 13 -- -- -- -- 0 -- -- 75
2018-01-28 12:00:00 12.5 -- -- -- -- 0 -- -- 78
2018-01-28 11:00:00 11.7 -- -- -- -- 0 -- -- 88
2018-01-28 10:00:00 10.4 -- -- -- -- 0 -- -- 97
2018-01-28 09:00:00 9.6 -- -- -- -- 0 -- -- 97
2018-01-28 08:00:00 9.8 -- -- -- -- 0 -- -- 97
2018-01-28 07:00:00 10.3 -- -- -- -- 0 -- -- 98
2018-01-28 06:00:00 10.1 -- -- -- -- 0 -- -- 98
2018-01-28 05:00:00 9.8 -- -- -- -- 0 -- -- 98
2018-01-28 04:00:00 10 -- -- -- -- 0 -- -- 98
2018-01-28 03:00:00 10 -- -- -- -- 0 -- -- 98
2018-01-28 02:00:00 9.8 -- -- -- -- 0 -- -- 98
2018-01-28 01:00:00 9.7 -- -- -- -- 0 -- -- 98
2018-01-28 00:00:00 9.6 -- -- -- -- 0 -- -- 97
2018-01-27 23:00:00 9.7 -- -- -- -- 0 -- -- 97
2018-01-27 22:00:00 9.7 -- -- -- -- 0 -- -- 97
2018-01-27 21:00:00 9.7 -- -- -- -- 0 -- -- 96
2018-01-27 20:00:00 9.8 -- -- -- -- 0 -- -- 96
2018-01-27 19:00:00 9.8 -- -- -- -- 0 -- -- 95
2018-01-27 18:00:00 10.1 -- -- -- -- 0 -- -- 94
2018-01-27 17:00:00 10.4 -- -- -- -- 0 -- -- 91
2018-01-27 16:00:00 10.9 -- -- -- -- 0 -- -- 86
2018-01-27 15:00:00 11 -- -- -- -- 0 -- -- 85
2018-01-27 14:00:00 11.4 -- -- -- -- 0 -- -- 79
2018-01-27 13:00:00 11.3 -- -- -- -- 0 -- -- 78
2018-01-27 12:00:00 10.8 -- -- -- -- 0 -- -- 81
2018-01-27 11:00:00 10.4 -- -- -- -- 0 -- -- 82
2018-01-27 10:00:00 10.1 -- -- -- -- 0 -- -- 83
2018-01-27 09:00:00 10 -- -- -- -- 0 -- -- 80
2018-01-27 08:00:00 9.6 -- -- -- -- 0 -- -- 82
2018-01-27 07:00:00 9.7 -- -- -- -- 0 -- -- 81
2018-01-27 06:00:00 9.7 -- -- -- -- 0 -- -- 80
2018-01-27 05:00:00 9.6 -- -- -- -- 0 -- -- 80
2018-01-27 04:00:00 9.1 -- -- -- -- 0 -- -- 85
2018-01-27 03:00:00 9.4 -- -- -- -- 0 -- -- 81
2018-01-27 02:00:00 9.7 -- -- -- -- 0 -- -- 81
2018-01-27 01:00:00 9.5 -- -- -- -- 0 -- -- 81
2018-01-27 00:00:00 8.8 -- -- -- -- 0.4 -- -- 87
2018-01-26 23:00:00 9.3 -- -- -- -- 0 -- -- 81
2018-01-26 22:00:00 9.5 -- -- -- -- 0 -- -- 82
2018-01-26 21:00:00 9.4 -- -- -- -- 0 -- -- 84
2018-01-26 20:00:00 9.6 -- -- -- -- 0.4 -- -- 80
2018-01-26 19:00:00 9.7 -- -- -- -- 0 -- -- 79
2018-01-26 18:00:00 9.7 -- -- -- -- 0.2 -- -- 81
2018-01-26 17:00:00 10.1 -- -- -- -- 0.2 -- -- 81
2018-01-26 16:00:00 10.3 -- -- -- -- 0 -- -- 80
2018-01-26 15:00:00 10.5 -- -- -- -- 0 -- -- 72
2018-01-26 14:00:00 11.6 -- -- -- -- 0 -- -- 75
2018-01-26 13:00:00 9.8 -- -- -- -- 0.6 -- -- 84
2018-01-26 12:00:00 10.1 -- -- -- -- 1 -- -- 81
2018-01-26 11:00:00 10.4 -- -- -- -- 0.2 -- -- 79
2018-01-26 10:00:00 8.4 -- -- -- -- 0.6 -- -- 82
2018-01-26 09:00:00 8.4 -- -- -- -- 0.2 -- -- 83
2018-01-26 08:00:00 8.9 -- -- -- -- 0 -- -- 77
2018-01-26 07:00:00 9.8 -- -- -- -- 0 -- -- 73
2018-01-26 06:00:00 9.2 -- -- -- -- 0.2 -- -- 78
2018-01-26 05:00:00 9.3 -- -- -- -- 0 -- -- 77
2018-01-26 04:00:00 9.1 -- -- -- -- 0 -- -- 80
2018-01-26 03:00:00 9 -- -- -- -- 0 -- -- 78
2018-01-26 02:00:00 8.9 -- -- -- -- 0 -- -- 80
2018-01-26 01:00:00 8.4 -- -- -- -- 0 -- -- 80
2018-01-26 00:00:00 8.1 -- -- -- -- 0 -- -- 83
2018-01-25 23:00:00 7.6 -- -- -- -- 0 -- -- 82
2018-01-25 22:00:00 7.4 -- -- -- -- 0 -- -- 83
2018-01-25 21:00:00 7.4 -- -- -- -- 0 -- -- 83
2018-01-25 20:00:00 7.4 -- -- -- -- 0 -- -- 84
2018-01-25 19:00:00 7.4 -- -- -- -- 0.2 -- -- 86
2018-01-25 18:00:00 7.9 -- -- -- -- 0 -- -- 84
2018-01-25 17:00:00 7.8 -- -- -- -- 0.6 -- -- 87
2018-01-25 16:00:00 8.7 -- -- -- -- 1 -- -- 82
2018-01-25 15:00:00 9.7 -- -- -- -- 0.8 -- -- 87
2018-01-25 14:00:00 9.7 -- -- -- -- 1 -- -- 88
2018-01-25 13:00:00 9.9 -- -- -- -- 0 -- -- 87
2018-01-25 12:00:00 8.1 -- -- -- -- 1.4 -- -- 91
2018-01-25 11:00:00 8.7 -- -- -- -- 0 -- -- 89
2018-01-25 10:00:00 8.6 -- -- -- -- 1.2 -- -- 89
2018-01-25 09:00:00 8.8 -- -- -- -- 0.2 -- -- 88
2018-01-25 08:00:00 9.1 -- -- -- -- 0 -- -- 86
2018-01-25 07:00:00 9.5 -- -- -- -- 0 -- -- 82
2018-01-25 06:00:00 9.5 -- -- -- -- 0 -- -- 86
2018-01-25 05:00:00 9.6 -- -- -- -- 0.2 -- -- 92
2018-01-25 04:00:00 9.7 -- -- -- -- 0 -- -- 95
2018-01-25 03:00:00 9.9 -- -- -- -- 0.2 -- -- 95
2018-01-25 02:00:00 10.1 -- -- -- -- 0.4 -- -- 95
2018-01-25 01:00:00 10.4 -- -- -- -- 0.2 -- -- 95
2018-01-25 00:00:00 10.6 -- -- -- -- 0.2 -- -- 93
2018-01-24 23:00:00 10.7 -- -- -- -- 0.2 -- -- 93
2018-01-24 22:00:00 10.9 -- -- -- -- 2.2 -- -- 95
2018-01-24 21:00:00 11.1 -- -- -- -- 4.2 -- -- 94
2018-01-24 20:00:00 11.9 -- -- -- -- 1.4 -- -- 89
2018-01-24 19:00:00 13.7 -- -- -- -- 0 -- -- 76
2018-01-24 18:00:00 14.8 -- -- -- -- 0 -- -- 73
2018-01-24 17:00:00 15.3 -- -- -- -- 0 -- -- 71
2018-01-24 16:00:00 15.7 -- -- -- -- 0 -- -- 69
2018-01-24 15:00:00 15 -- -- -- -- 0 -- -- 68
2018-01-24 14:00:00 13.4 -- -- -- -- 0 -- -- 70
2018-01-24 13:00:00 13.7 -- -- -- -- 0 -- -- 67
2018-01-24 12:00:00 14 -- -- -- -- 0 -- -- 64
2018-01-24 11:00:00 12.7 -- -- -- -- 0 -- -- 67
2018-01-24 10:00:00 11.2 -- -- -- -- 0 -- -- 71
2018-01-24 09:00:00 10.8 -- -- -- -- 0 -- -- 73
2018-01-24 08:00:00 9.7 -- -- -- -- 0 -- -- 78
2018-01-24 07:00:00 9.8 -- -- -- -- 0 -- -- 76
2018-01-24 06:00:00 10.5 -- -- -- -- 0 -- -- 73
2018-01-24 05:00:00 10.9 -- -- -- -- 0 -- -- 72
2018-01-24 04:00:00 10.9 -- -- -- -- 0 -- -- 74
2018-01-24 03:00:00 10.2 -- -- -- -- 0 -- -- 76
2018-01-24 02:00:00 12.3 -- -- -- -- 0 -- -- 67
2018-01-24 01:00:00 13.1 -- -- -- -- 0 -- -- 66
2018-01-24 00:00:00 13.4 -- -- -- -- 0 -- -- 66
2018-01-23 23:00:00 12.1 -- -- -- -- 0 -- -- 73
2018-01-23 22:00:00 12.9 -- -- -- -- 0 -- -- 69
2018-01-23 21:00:00 13 -- -- -- -- 0 -- -- 69
2018-01-23 20:00:00 13.3 -- -- -- -- 0 -- -- 69
2018-01-23 19:00:00 13.1 -- -- -- -- 0 -- -- 75
2018-01-23 18:00:00 13.4 -- -- -- -- 0 -- -- 78
2018-01-23 17:00:00 14.5 -- -- -- -- 0 -- -- 75
2018-01-23 16:00:00 15.6 -- -- -- -- 0 -- -- 67
2018-01-23 15:00:00 16.5 -- -- -- -- 0 -- -- 60
2018-01-23 14:00:00 17.5 -- -- -- -- 0 -- -- 58
2018-01-23 13:00:00 16.3 -- -- -- -- 0 -- -- 63
2018-01-23 12:00:00 15.1 -- -- -- -- 0 -- -- 70
2018-01-23 11:00:00 14.3 -- -- -- -- 0 -- -- 68
2018-01-23 10:00:00 13.6 -- -- -- -- 0 -- -- 72
2018-01-23 09:00:00 12.7 -- -- -- -- 0 -- -- 80
2018-01-23 08:00:00 12.6 -- -- -- -- 0 -- -- 81
2018-01-23 07:00:00 12.7 -- -- -- -- 0 -- -- 83
2018-01-23 06:00:00 12.8 -- -- -- -- 0 -- -- 83
2018-01-23 05:00:00 13.3 -- -- -- -- 0 -- -- 80
2018-01-23 04:00:00 13.4 -- -- -- -- 0 -- -- 80
2018-01-23 03:00:00 13.3 -- -- -- -- 0 -- -- 84
2018-01-23 02:00:00 13.7 -- -- -- -- 0 -- -- 83
2018-01-23 01:00:00 13.8 -- -- -- -- 0 -- -- 82
2018-01-23 00:00:00 14 -- -- -- -- 0 -- -- 81
2018-01-22 23:00:00 13.9 -- -- -- -- 0 -- -- 82
2018-01-22 22:00:00 13.9 -- -- -- -- 0 -- -- 82
2018-01-22 21:00:00 13.8 -- -- -- -- 0 -- -- 82
2018-01-22 20:00:00 13.9 -- -- -- -- 0 -- -- 82
2018-01-22 19:00:00 14.9 -- -- -- -- 0 -- -- 79
2018-01-22 18:00:00 15.7 -- -- -- -- 0 -- -- 76
2018-01-22 17:00:00 16.2 -- -- -- -- 0 -- -- 74
2018-01-22 16:00:00 16.5 -- -- -- -- 0 -- -- 70
2018-01-22 15:00:00 16.6 -- -- -- -- 0 -- -- 71
2018-01-22 14:00:00 17.1 -- -- -- -- 0 -- -- 69
2018-01-22 13:00:00 17.3 -- -- -- -- 0 -- -- 67
2018-01-22 12:00:00 15.7 -- -- -- -- 0 -- -- 71
2018-01-22 11:00:00 14.8 -- -- -- -- 0 -- -- 72
2018-01-22 10:00:00 14.4 -- -- -- -- 0 -- -- 72
2018-01-22 09:00:00 13.8 -- -- -- -- 0 -- -- 74
2018-01-22 08:00:00 13 -- -- -- -- 0 -- -- 77
2018-01-22 07:00:00 13.3 -- -- -- -- 0 -- -- 77
2018-01-22 06:00:00 13.5 -- -- -- -- 0 -- -- 74
2018-01-22 05:00:00 13.7 -- -- -- -- 0 -- -- 74
2018-01-22 04:00:00 14 -- -- -- -- 0 -- -- 74
2018-01-22 03:00:00 13.8 -- -- -- -- 0 -- -- 77
2018-01-22 02:00:00 13.5 -- -- -- -- 0 -- -- 84
2018-01-22 01:00:00 14.3 -- -- -- -- 0 -- -- 77
2018-01-22 00:00:00 14.5 -- -- -- -- 0 -- -- 75